sensor_id;sensor_type;location;lat;lon;timestamp;temperature;humidity
32095;DHT22;18608;53.688;10.748;2022-12-01T00:01:43;4.10;99.90
32095;DHT22;18608;53.688;10.748;2022-12-01T00:04:09;4.10;99.90
32095;DHT22;18608;53.688;10.748;2022-12-01T00:06:35;4.10;99.90
32095;DHT22;18608;53.688;10.748;2022-12-01T00:09:01;4.10;99.90
32095;DHT22;18608;53.688;10.748;2022-12-01T00:11:45;3.90;99.90
32095;DHT22;18608;53.688;10.748;2022-12-01T00:14:11;3.80;99.90
32095;DHT22;18608;53.688;10.748;2022-12-01T00:16:36;3.80;99.90
32095;DHT22;18608;53.688;10.748;2022-12-01T00:19:04;3.80;99.90
32095;DHT22;18608;53.688;10.748;2022-12-01T00:21:30;3.90;99.90
32095;DHT22;18608;53.688;10.748;2022-12-01T00:23:56;3.80;99.90
32095;DHT22;18608;53.688;10.748;2022-12-01T00:26:23;3.70;99.90
32095;DHT22;18608;53.688;10.748;2022-12-01T00:28:51;3.80;99.90
32095;DHT22;18608;53.688;10.748;2022-12-01T00:31:17;3.90;99.90
32095;DHT22;18608;53.688;10.748;2022-12-01T00:33:42;4.00;99.90
32095;DHT22;18608;53.688;10.748;2022-12-01T00:36:08;4.00;99.90
32095;DHT22;18608;53.688;10.748;2022-12-01T00:38:34;3.80;99.90
32095;DHT22;18608;53.688;10.748;2022-12-01T00:40:59;3.70;99.90
32095;DHT22;18608;53.688;10.748;2022-12-01T00:43:26;3.60;99.90
32095;DHT22;18608;53.688;10.748;2022-12-01T00:45:52;3.60;99.90
32095;DHT22;18608;53.688;10.748;2022-12-01T00:48:17;3.70;99.90
32095;DHT22;18608;53.688;10.748;2022-12-01T00:50:43;3.80;99.90
32095;DHT22;18608;53.688;10.748;2022-12-01T00:53:09;3.80;99.90
32095;DHT22;18608;53.688;10.748;2022-12-01T00:55:35;3.80;99.90
32095;DHT22;18608;53.688;10.748;2022-12-01T00:58:00;3.70;99.90
32095;DHT22;18608;53.688;10.748;2022-12-01T01:00:26;3.80;99.90
32095;DHT22;18608;53.688;10.748;2022-12-01T01:02:52;3.80;99.90
32095;DHT22;18608;53.688;10.748;2022-12-01T01:05:17;3.70;99.90
32095;DHT22;18608;53.688;10.748;2022-12-01T01:07:43;3.70;99.90
32095;DHT22;18608;53.688;10.748;2022-12-01T01:10:09;3.70;99.90
32095;DHT22;18608;53.688;10.748;2022-12-01T01:12:35;3.60;99.90
32095;DHT22;18608;53.688;10.748;2022-12-01T01:15:01;3.70;99.90
32095;DHT22;18608;53.688;10.748;2022-12-01T01:17:26;3.70;99.90
32095;DHT22;18608;53.688;10.748;2022-12-01T01:19:52;3.80;99.90
32095;DHT22;18608;53.688;10.748;2022-12-01T01:22:18;3.70;99.90
32095;DHT22;18608;53.688;10.748;2022-12-01T01:24:43;3.80;99.90
32095;DHT22;18608;53.688;10.748;2022-12-01T01:27:09;3.90;99.90
32095;DHT22;18608;53.688;10.748;2022-12-01T01:29:35;4.00;99.90
32095;DHT22;18608;53.688;10.748;2022-12-01T01:32:01;3.90;99.90
32095;DHT22;18608;53.688;10.748;2022-12-01T01:34:28;3.80;99.90
32095;DHT22;18608;53.688;10.748;2022-12-01T01:36:54;3.90;99.90
32095;DHT22;18608;53.688;10.748;2022-12-01T01:39:19;3.90;99.90
32095;DHT22;18608;53.688;10.748;2022-12-01T01:41:45;3.70;99.90
32095;DHT22;18608;53.688;10.748;2022-12-01T01:47:11;3.60;99.90
32095;DHT22;18608;53.688;10.748;2022-12-01T01:49:38;3.60;99.90
32095;DHT22;18608;53.688;10.748;2022-12-01T01:52:04;3.50;99.90
32095;DHT22;18608;53.688;10.748;2022-12-01T01:54:35;3.60;99.90
32095;DHT22;18608;53.688;10.748;2022-12-01T01:57:03;3.60;99.90
32095;DHT22;18608;53.688;10.748;2022-12-01T01:59:36;3.60;99.90
32095;DHT22;18608;53.688;10.748;2022-12-01T02:02:06;3.60;99.90
32095;DHT22;18608;53.688;10.748;2022-12-01T02:04:38;3.70;99.90
32095;DHT22;18608;53.688;10.748;2022-12-01T02:07:06;3.70;99.90
32095;DHT22;18608;53.688;10.748;2022-12-01T02:09:31;3.70;99.90
32095;DHT22;18608;53.688;10.748;2022-12-01T02:12:56;3.70;99.90
32095;DHT22;18608;53.688;10.748;2022-12-01T02:21:13;3.70;99.90
32095;DHT22;18608;53.688;10.748;2022-12-01T02:32:38;3.60;99.90
32095;DHT22;18608;53.688;10.748;2022-12-01T02:48:48;3.60;99.90
32095;DHT22;18608;53.688;10.748;2022-12-01T02:53:43;3.60;99.90
32095;DHT22;18608;53.688;10.748;2022-12-01T02:56:11;3.70;99.90
32095;DHT22;18608;53.688;10.748;2022-12-01T02:58:38;3.70;99.90
32095;DHT22;18608;53.688;10.748;2022-12-01T03:06:39;3.70;99.90
32095;DHT22;18608;53.688;10.748;2022-12-01T03:09:27;3.60;99.90
32095;DHT22;18608;53.688;10.748;2022-12-01T03:23:13;3.50;99.90
32095;DHT22;18608;53.688;10.748;2022-12-01T03:25:42;3.50;99.90
32095;DHT22;18608;53.688;10.748;2022-12-01T03:28:12;3.50;99.90
32095;DHT22;18608;53.688;10.748;2022-12-01T03:30:39;3.50;99.90
32095;DHT22;18608;53.688;10.748;2022-12-01T03:33:13;3.60;99.90
32095;DHT22;18608;53.688;10.748;2022-12-01T03:35:56;3.60;99.90
32095;DHT22;18608;53.688;10.748;2022-12-01T03:38:25;3.60;99.90
32095;DHT22;18608;53.688;10.748;2022-12-01T03:40:57;3.50;99.90
32095;DHT22;18608;53.688;10.748;2022-12-01T03:43:35;3.50;99.90
32095;DHT22;18608;53.688;10.748;2022-12-01T03:46:14;3.60;99.90
32095;DHT22;18608;53.688;10.748;2022-12-01T03:48:42;3.50;99.90
32095;DHT22;18608;53.688;10.748;2022-12-01T03:51:29;3.50;99.90
32095;DHT22;18608;53.688;10.748;2022-12-01T03:54:10;3.40;99.90
32095;DHT22;18608;53.688;10.748;2022-12-01T03:56:47;3.40;99.90
32095;DHT22;18608;53.688;10.748;2022-12-01T03:59:17;3.30;99.90
32095;DHT22;18608;53.688;10.748;2022-12-01T04:01:44;3.40;99.90
32095;DHT22;18608;53.688;10.748;2022-12-01T04:04:12;3.40;99.90
32095;DHT22;18608;53.688;10.748;2022-12-01T04:06:39;3.40;99.90
32095;DHT22;18608;53.688;10.748;2022-12-01T04:09:07;3.30;99.90
32095;DHT22;18608;53.688;10.748;2022-12-01T04:11:32;3.30;99.90
32095;DHT22;18608;53.688;10.748;2022-12-01T04:14:16;3.40;99.90
32095;DHT22;18608;53.688;10.748;2022-12-01T04:16:42;3.30;99.90
32095;DHT22;18608;53.688;10.748;2022-12-01T04:19:08;3.30;99.90
32095;DHT22;18608;53.688;10.748;2022-12-01T04:21:34;3.30;99.90
32095;DHT22;18608;53.688;10.748;2022-12-01T04:23:59;3.30;99.90
32095;DHT22;18608;53.688;10.748;2022-12-01T04:26:26;3.30;99.90
32095;DHT22;18608;53.688;10.748;2022-12-01T04:28:52;3.40;99.90
32095;DHT22;18608;53.688;10.748;2022-12-01T04:31:17;3.30;99.90
32095;DHT22;18608;53.688;10.748;2022-12-01T04:33:43;3.30;99.90
32095;DHT22;18608;53.688;10.748;2022-12-01T04:36:09;3.30;99.90
32095;DHT22;18608;53.688;10.748;2022-12-01T04:38:35;3.30;99.90
32095;DHT22;18608;53.688;10.748;2022-12-01T04:41:07;3.20;99.90
32095;DHT22;18608;53.688;10.748;2022-12-01T04:43:33;3.30;99.90
32095;DHT22;18608;53.688;10.748;2022-12-01T04:45:59;3.40;99.90
32095;DHT22;18608;53.688;10.748;2022-12-01T04:48:24;3.30;99.90
32095;DHT22;18608;53.688;10.748;2022-12-01T04:50:50;3.30;99.90
32095;DHT22;18608;53.688;10.748;2022-12-01T04:53:16;3.30;99.90
32095;DHT22;18608;53.688;10.748;2022-12-01T04:55:41;3.30;99.90
32095;DHT22;18608;53.688;10.748;2022-12-01T04:58:07;3.20;99.90
32095;DHT22;18608;53.688;10.748;2022-12-01T05:00:32;3.10;99.90
32095;DHT22;18608;53.688;10.748;2022-12-01T05:02:59;3.10;99.90
32095;DHT22;18608;53.688;10.748;2022-12-01T05:05:24;3.20;99.90
32095;DHT22;18608;53.688;10.748;2022-12-01T05:07:50;3.20;99.90
32095;DHT22;18608;53.688;10.748;2022-12-01T05:10:16;3.00;99.90
32095;DHT22;18608;53.688;10.748;2022-12-01T05:12:44;3.00;99.90
32095;DHT22;18608;53.688;10.748;2022-12-01T05:15:11;3.00;99.90
32095;DHT22;18608;53.688;10.748;2022-12-01T05:17:37;2.90;99.90
32095;DHT22;18608;53.688;10.748;2022-12-01T05:20:03;3.00;99.90
32095;DHT22;18608;53.688;10.748;2022-12-01T05:22:47;3.10;99.90
32095;DHT22;18608;53.688;10.748;2022-12-01T05:25:13;3.10;99.90
32095;DHT22;18608;53.688;10.748;2022-12-01T05:27:39;3.00;99.90
32095;DHT22;18608;53.688;10.748;2022-12-01T05:30:07;3.00;99.90
32095;DHT22;18608;53.688;10.748;2022-12-01T05:32:33;3.80;99.90
32095;DHT22;18608;53.688;10.748;2022-12-01T05:34:59;3.10;99.90
32095;DHT22;18608;53.688;10.748;2022-12-01T05:37:24;3.00;99.90
32095;DHT22;18608;53.688;10.748;2022-12-01T05:39:50;2.90;99.90
32095;DHT22;18608;53.688;10.748;2022-12-01T05:42:16;3.00;99.90
32095;DHT22;18608;53.688;10.748;2022-12-01T05:44:41;3.00;99.90
32095;DHT22;18608;53.688;10.748;2022-12-01T05:47:07;3.00;99.90
32095;DHT22;18608;53.688;10.748;2022-12-01T05:49:32;3.00;99.90
32095;DHT22;18608;53.688;10.748;2022-12-01T05:51:58;3.00;99.90
32095;DHT22;18608;53.688;10.748;2022-12-01T05:54:23;3.00;99.90
32095;DHT22;18608;53.688;10.748;2022-12-01T05:56:49;2.90;99.90
32095;DHT22;18608;53.688;10.748;2022-12-01T05:59:15;2.90;99.90
32095;DHT22;18608;53.688;10.748;2022-12-01T06:01:40;2.90;99.90
32095;DHT22;18608;53.688;10.748;2022-12-01T06:04:06;2.80;99.90
32095;DHT22;18608;53.688;10.748;2022-12-01T06:06:33;2.90;99.90
32095;DHT22;18608;53.688;10.748;2022-12-01T06:08:58;2.90;99.90
32095;DHT22;18608;53.688;10.748;2022-12-01T06:11:24;2.90;99.90
32095;DHT22;18608;53.688;10.748;2022-12-01T06:13:49;2.90;99.90
32095;DHT22;18608;53.688;10.748;2022-12-01T06:16:15;3.00;99.90
32095;DHT22;18608;53.688;10.748;2022-12-01T06:18:40;2.90;99.90
32095;DHT22;18608;53.688;10.748;2022-12-01T06:21:06;2.80;99.90
32095;DHT22;18608;53.688;10.748;2022-12-01T06:23:32;2.70;99.90
32095;DHT22;18608;53.688;10.748;2022-12-01T06:25:58;2.70;99.90
32095;DHT22;18608;53.688;10.748;2022-12-01T06:28:23;2.80;99.90
32095;DHT22;18608;53.688;10.748;2022-12-01T06:30:49;2.80;99.90
32095;DHT22;18608;53.688;10.748;2022-12-01T06:33:15;2.90;99.90
32095;DHT22;18608;53.688;10.748;2022-12-01T06:35:40;2.80;99.90
32095;DHT22;18608;53.688;10.748;2022-12-01T06:38:06;2.80;99.90
32095;DHT22;18608;53.688;10.748;2022-12-01T06:40:31;2.80;99.90
32095;DHT22;18608;53.688;10.748;2022-12-01T06:43:01;2.80;99.90
32095;DHT22;18608;53.688;10.748;2022-12-01T06:45:28;2.70;99.90
32095;DHT22;18608;53.688;10.748;2022-12-01T06:47:54;2.70;99.90
32095;DHT22;18608;53.688;10.748;2022-12-01T06:50:20;2.70;99.90
32095;DHT22;18608;53.688;10.748;2022-12-01T06:52:46;2.80;99.90
32095;DHT22;18608;53.688;10.748;2022-12-01T06:55:12;2.70;99.90
32095;DHT22;18608;53.688;10.748;2022-12-01T06:57:38;2.60;99.90
32095;DHT22;18608;53.688;10.748;2022-12-01T07:00:05;2.70;99.90
32095;DHT22;18608;53.688;10.748;2022-12-01T07:02:31;2.60;99.90
32095;DHT22;18608;53.688;10.748;2022-12-01T07:04:56;2.50;99.90
32095;DHT22;18608;53.688;10.748;2022-12-01T07:07:22;2.50;99.90
32095;DHT22;18608;53.688;10.748;2022-12-01T07:09:48;2.30;99.90
32095;DHT22;18608;53.688;10.748;2022-12-01T07:12:14;2.40;99.90
32095;DHT22;18608;53.688;10.748;2022-12-01T07:14:39;2.30;99.90
32095;DHT22;18608;53.688;10.748;2022-12-01T07:17:07;2.20;99.90
32095;DHT22;18608;53.688;10.748;2022-12-01T07:19:33;2.20;99.90
32095;DHT22;18608;53.688;10.748;2022-12-01T07:21:59;2.20;99.90
32095;DHT22;18608;53.688;10.748;2022-12-01T07:24:25;2.20;99.90
32095;DHT22;18608;53.688;10.748;2022-12-01T07:26:50;2.10;99.90
32095;DHT22;18608;53.688;10.748;2022-12-01T07:29:16;2.10;99.90
32095;DHT22;18608;53.688;10.748;2022-12-01T07:31:41;2.10;99.90
32095;DHT22;18608;53.688;10.748;2022-12-01T07:34:10;2.20;99.90
32095;DHT22;18608;53.688;10.748;2022-12-01T07:36:36;2.00;99.90
32095;DHT22;18608;53.688;10.748;2022-12-01T07:39:07;2.00;99.90
32095;DHT22;18608;53.688;10.748;2022-12-01T07:41:33;2.10;99.90
32095;DHT22;18608;53.688;10.748;2022-12-01T07:43:59;2.10;99.90
32095;DHT22;18608;53.688;10.748;2022-12-01T07:46:26;2.00;99.90
32095;DHT22;18608;53.688;10.748;2022-12-01T07:48:53;1.90;99.90
32095;DHT22;18608;53.688;10.748;2022-12-01T07:51:21;1.90;99.90
32095;DHT22;18608;53.688;10.748;2022-12-01T07:53:48;1.90;99.90
32095;DHT22;18608;53.688;10.748;2022-12-01T07:56:14;1.90;99.90
32095;DHT22;18608;53.688;10.748;2022-12-01T07:58:41;1.90;99.90
32095;DHT22;18608;53.688;10.748;2022-12-01T08:01:09;1.90;99.90
32095;DHT22;18608;53.688;10.748;2022-12-01T08:03:35;1.80;99.90
32095;DHT22;18608;53.688;10.748;2022-12-01T08:06:01;1.80;99.90
32095;DHT22;18608;53.688;10.748;2022-12-01T08:08:28;1.80;99.90
32095;DHT22;18608;53.688;10.748;2022-12-01T08:10:58;1.80;99.90
32095;DHT22;18608;53.688;10.748;2022-12-01T08:13:25;1.80;99.90
32095;DHT22;18608;53.688;10.748;2022-12-01T08:15:50;1.80;99.90
32095;DHT22;18608;53.688;10.748;2022-12-01T08:18:16;1.70;99.90
32095;DHT22;18608;53.688;10.748;2022-12-01T08:20:41;1.70;99.90
32095;DHT22;18608;53.688;10.748;2022-12-01T08:23:07;1.70;99.90
32095;DHT22;18608;53.688;10.748;2022-12-01T08:25:33;1.70;99.90
32095;DHT22;18608;53.688;10.748;2022-12-01T08:27:59;1.80;99.90
32095;DHT22;18608;53.688;10.748;2022-12-01T08:30:25;1.70;99.90
32095;DHT22;18608;53.688;10.748;2022-12-01T08:32:55;1.70;99.90
32095;DHT22;18608;53.688;10.748;2022-12-01T08:35:22;1.60;99.90
32095;DHT22;18608;53.688;10.748;2022-12-01T08:37:50;1.60;99.90
32095;DHT22;18608;53.688;10.748;2022-12-01T08:40:16;1.60;99.90
32095;DHT22;18608;53.688;10.748;2022-12-01T08:42:42;1.60;99.90
32095;DHT22;18608;53.688;10.748;2022-12-01T08:45:08;1.70;99.90
32095;DHT22;18608;53.688;10.748;2022-12-01T08:47:34;1.70;99.90
32095;DHT22;18608;53.688;10.748;2022-12-01T08:49:59;1.80;99.90
32095;DHT22;18608;53.688;10.748;2022-12-01T08:52:25;1.80;99.90
32095;DHT22;18608;53.688;10.748;2022-12-01T08:54:55;1.80;99.90
32095;DHT22;18608;53.688;10.748;2022-12-01T08:57:21;1.80;99.90
32095;DHT22;18608;53.688;10.748;2022-12-01T08:59:46;1.80;99.90
32095;DHT22;18608;53.688;10.748;2022-12-01T09:02:14;1.80;99.90
32095;DHT22;18608;53.688;10.748;2022-12-01T09:04:40;1.90;99.90
32095;DHT22;18608;53.688;10.748;2022-12-01T09:07:09;1.90;99.90
32095;DHT22;18608;53.688;10.748;2022-12-01T09:09:35;1.90;99.90
32095;DHT22;18608;53.688;10.748;2022-12-01T09:12:02;1.70;99.90
32095;DHT22;18608;53.688;10.748;2022-12-01T09:14:27;1.70;99.90
32095;DHT22;18608;53.688;10.748;2022-12-01T09:16:53;1.70;99.90
32095;DHT22;18608;53.688;10.748;2022-12-01T09:19:19;1.70;99.90
32095;DHT22;18608;53.688;10.748;2022-12-01T09:21:45;1.70;99.90
32095;DHT22;18608;53.688;10.748;2022-12-01T09:24:13;1.80;99.90
32095;DHT22;18608;53.688;10.748;2022-12-01T09:26:40;1.80;99.90
32095;DHT22;18608;53.688;10.748;2022-12-01T09:29:08;1.70;99.90
32095;DHT22;18608;53.688;10.748;2022-12-01T09:31:34;1.70;99.90
32095;DHT22;18608;53.688;10.748;2022-12-01T09:34:03;1.50;99.90
32095;DHT22;18608;53.688;10.748;2022-12-01T09:36:31;1.60;99.90
32095;DHT22;18608;53.688;10.748;2022-12-01T09:38:57;1.60;99.90
32095;DHT22;18608;53.688;10.748;2022-12-01T09:46:57;1.80;99.90
32095;DHT22;18608;53.688;10.748;2022-12-01T09:52:27;1.70;99.90
32095;DHT22;18608;53.688;10.748;2022-12-01T09:54:55;1.60;99.90
32095;DHT22;18608;53.688;10.748;2022-12-01T09:57:30;1.60;99.90
32095;DHT22;18608;53.688;10.748;2022-12-01T09:59:57;1.50;99.90
32095;DHT22;18608;53.688;10.748;2022-12-01T10:05:19;1.60;99.90
32095;DHT22;18608;53.688;10.748;2022-12-01T10:07:56;1.60;99.90
32095;DHT22;18608;53.688;10.748;2022-12-01T10:12:53;1.60;99.90
32095;DHT22;18608;53.688;10.748;2022-12-01T10:21:11;1.60;99.90
32095;DHT22;18608;53.688;10.748;2022-12-01T10:26:37;1.60;99.90
32095;DHT22;18608;53.688;10.748;2022-12-01T10:32:25;1.70;99.90
32095;DHT22;18608;53.688;10.748;2022-12-01T10:34:55;1.70;99.90
32095;DHT22;18608;53.688;10.748;2022-12-01T10:37:24;1.70;99.90
32095;DHT22;18608;53.688;10.748;2022-12-01T10:39:52;1.60;99.90
32095;DHT22;18608;53.688;10.748;2022-12-01T10:42:41;1.70;99.90
32095;DHT22;18608;53.688;10.748;2022-12-01T10:45:28;1.80;99.90
32095;DHT22;18608;53.688;10.748;2022-12-01T10:50:42;1.90;99.90
32095;DHT22;18608;53.688;10.748;2022-12-01T10:56:05;1.80;99.90
32095;DHT22;18608;53.688;10.748;2022-12-01T10:58:42;1.80;99.90
32095;DHT22;18608;53.688;10.748;2022-12-01T11:01:33;1.80;99.90
32095;DHT22;18608;53.688;10.748;2022-12-01T11:04:19;1.90;99.90
32095;DHT22;18608;53.688;10.748;2022-12-01T11:06:48;1.90;99.90
32095;DHT22;18608;53.688;10.748;2022-12-01T11:09:24;1.90;99.90
32095;DHT22;18608;53.688;10.748;2022-12-01T11:11:57;2.00;99.90
32095;DHT22;18608;53.688;10.748;2022-12-01T11:17:21;2.10;99.90
32095;DHT22;18608;53.688;10.748;2022-12-01T11:19:49;2.20;99.90
32095;DHT22;18608;53.688;10.748;2022-12-01T11:22:28;2.10;99.90
32095;DHT22;18608;53.688;10.748;2022-12-01T11:27:26;2.20;99.90
32095;DHT22;18608;53.688;10.748;2022-12-01T11:30:06;2.10;99.90
32095;DHT22;18608;53.688;10.748;2022-12-01T11:32:37;2.30;99.90
32095;DHT22;18608;53.688;10.748;2022-12-01T11:37:38;2.30;99.90
32095;DHT22;18608;53.688;10.748;2022-12-01T11:42:51;2.20;99.90
32095;DHT22;18608;53.688;10.748;2022-12-01T11:48:04;2.20;99.90
32095;DHT22;18608;53.688;10.748;2022-12-01T11:50:36;2.30;99.90
32095;DHT22;18608;53.688;10.748;2022-12-01T11:53:02;2.30;99.90
32095;DHT22;18608;53.688;10.748;2022-12-01T11:55:30;2.30;99.90
32095;DHT22;18608;53.688;10.748;2022-12-01T11:58:02;2.30;99.90
32095;DHT22;18608;53.688;10.748;2022-12-01T12:00:42;2.40;99.90
32095;DHT22;18608;53.688;10.748;2022-12-01T12:03:27;2.40;99.90
32095;DHT22;18608;53.688;10.748;2022-12-01T12:36:59;2.50;99.90
32095;DHT22;18608;53.688;10.748;2022-12-01T12:48:22;2.40;99.90
32095;DHT22;18608;53.688;10.748;2022-12-01T12:53:20;2.30;99.90
32095;DHT22;18608;53.688;10.748;2022-12-01T12:55:52;2.20;99.90
32095;DHT22;18608;53.688;10.748;2022-12-01T13:06:17;2.10;99.90
32095;DHT22;18608;53.688;10.748;2022-12-01T13:08:50;2.10;99.90
32095;DHT22;18608;53.688;10.748;2022-12-01T13:11:35;2.00;99.90
32095;DHT22;18608;53.688;10.748;2022-12-01T13:14:34;2.00;99.90
32095;DHT22;18608;53.688;10.748;2022-12-01T13:17:23;1.90;99.90
32095;DHT22;18608;53.688;10.748;2022-12-01T13:19:51;2.00;99.90
32095;DHT22;18608;53.688;10.748;2022-12-01T13:22:17;2.00;99.90
32095;DHT22;18608;53.688;10.748;2022-12-01T13:24:46;2.00;99.90
32095;DHT22;18608;53.688;10.748;2022-12-01T13:27:18;2.10;99.90
32095;DHT22;18608;53.688;10.748;2022-12-01T13:29:51;2.00;99.90
32095;DHT22;18608;53.688;10.748;2022-12-01T13:34:52;1.80;99.90
32095;DHT22;18608;53.688;10.748;2022-12-01T13:37:35;1.80;99.90
32095;DHT22;18608;53.688;10.748;2022-12-01T13:40:23;1.80;99.90
32095;DHT22;18608;53.688;10.748;2022-12-01T13:45:21;1.80;99.90
32095;DHT22;18608;53.688;10.748;2022-12-01T13:47:51;1.80;99.90
32095;DHT22;18608;53.688;10.748;2022-12-01T13:53:12;1.80;99.90
32095;DHT22;18608;53.688;10.748;2022-12-01T13:55:58;1.80;99.90
32095;DHT22;18608;53.688;10.748;2022-12-01T13:58:41;1.70;99.90
32095;DHT22;18608;53.688;10.748;2022-12-01T14:03:59;1.80;99.90
32095;DHT22;18608;53.688;10.748;2022-12-01T14:08:58;1.90;99.90
32095;DHT22;18608;53.688;10.748;2022-12-01T14:11:27;1.90;99.90
32095;DHT22;18608;53.688;10.748;2022-12-01T14:14:26;1.90;99.90
32095;DHT22;18608;53.688;10.748;2022-12-01T14:16:58;1.80;99.90
32095;DHT22;18608;53.688;10.748;2022-12-01T14:19:48;1.80;99.90
32095;DHT22;18608;53.688;10.748;2022-12-01T14:25:33;1.80;99.90
32095;DHT22;18608;53.688;10.748;2022-12-01T14:28:01;1.90;99.90
32095;DHT22;18608;53.688;10.748;2022-12-01T14:38:37;1.80;99.90
32095;DHT22;18608;53.688;10.748;2022-12-01T14:41:10;1.80;99.90
32095;DHT22;18608;53.688;10.748;2022-12-01T14:43:40;1.80;99.90
32095;DHT22;18608;53.688;10.748;2022-12-01T14:46:26;1.90;99.90
32095;DHT22;18608;53.688;10.748;2022-12-01T14:48:54;1.90;99.90
32095;DHT22;18608;53.688;10.748;2022-12-01T14:51:25;1.90;99.90
32095;DHT22;18608;53.688;10.748;2022-12-01T14:53:53;1.80;99.90
32095;DHT22;18608;53.688;10.748;2022-12-01T14:56:20;1.90;99.90
32095;DHT22;18608;53.688;10.748;2022-12-01T14:58:58;1.80;99.90
32095;DHT22;18608;53.688;10.748;2022-12-01T15:01:34;1.70;99.90
32095;DHT22;18608;53.688;10.748;2022-12-01T15:04:03;1.80;99.90
32095;DHT22;18608;53.688;10.748;2022-12-01T15:06:30;1.70;99.90
32095;DHT22;18608;53.688;10.748;2022-12-01T15:09:12;1.70;99.90
32095;DHT22;18608;53.688;10.748;2022-12-01T15:11:49;1.70;99.90
32095;DHT22;18608;53.688;10.748;2022-12-01T15:14:35;1.80;99.90
32095;DHT22;18608;53.688;10.748;2022-12-01T15:17:01;1.70;99.90
32095;DHT22;18608;53.688;10.748;2022-12-01T15:19:38;1.70;99.90
32095;DHT22;18608;53.688;10.748;2022-12-01T15:22:15;1.60;99.90
32095;DHT22;18608;53.688;10.748;2022-12-01T15:24:42;1.70;99.90
32095;DHT22;18608;53.688;10.748;2022-12-01T15:29:50;1.90;99.90
32095;DHT22;18608;53.688;10.748;2022-12-01T15:32:17;2.00;99.90
32095;DHT22;18608;53.688;10.748;2022-12-01T15:34:46;1.90;99.90
32095;DHT22;18608;53.688;10.748;2022-12-01T15:37:14;1.90;99.90
32095;DHT22;18608;53.688;10.748;2022-12-01T15:39:54;1.90;99.90
32095;DHT22;18608;53.688;10.748;2022-12-01T15:42:30;2.00;99.90
32095;DHT22;18608;53.688;10.748;2022-12-01T15:53:02;1.90;99.90
32095;DHT22;18608;53.688;10.748;2022-12-01T15:55:34;2.00;99.90
32095;DHT22;18608;53.688;10.748;2022-12-01T15:58:01;2.10;99.90
32095;DHT22;18608;53.688;10.748;2022-12-01T16:00:30;2.10;99.90
32095;DHT22;18608;53.688;10.748;2022-12-01T16:02:58;2.10;99.90
32095;DHT22;18608;53.688;10.748;2022-12-01T16:05:32;2.10;99.90
32095;DHT22;18608;53.688;10.748;2022-12-01T16:08:20;2.00;99.90
32095;DHT22;18608;53.688;10.748;2022-12-01T16:13:38;1.80;99.90
32095;DHT22;18608;53.688;10.748;2022-12-01T16:21:44;1.80;99.90
32095;DHT22;18608;53.688;10.748;2022-12-01T16:27:29;1.80;99.90
32095;DHT22;18608;53.688;10.748;2022-12-01T16:30:00;1.70;99.90
32095;DHT22;18608;53.688;10.748;2022-12-01T16:32:39;1.70;99.90
32095;DHT22;18608;53.688;10.748;2022-12-01T16:35:22;1.70;99.90
32095;DHT22;18608;53.688;10.748;2022-12-01T16:37:48;1.70;99.90
32095;DHT22;18608;53.688;10.748;2022-12-01T16:40:14;1.60;99.90
32095;DHT22;18608;53.688;10.748;2022-12-01T16:42:41;1.70;99.90
32095;DHT22;18608;53.688;10.748;2022-12-01T16:45:10;1.80;99.90
32095;DHT22;18608;53.688;10.748;2022-12-01T16:47:39;1.70;99.90
32095;DHT22;18608;53.688;10.748;2022-12-01T16:50:05;1.70;99.90
32095;DHT22;18608;53.688;10.748;2022-12-01T16:52:31;1.80;99.90
32095;DHT22;18608;53.688;10.748;2022-12-01T16:54:56;1.80;99.90
32095;DHT22;18608;53.688;10.748;2022-12-01T16:57:22;1.80;99.90
32095;DHT22;18608;53.688;10.748;2022-12-01T16:59:48;1.70;99.90
32095;DHT22;18608;53.688;10.748;2022-12-01T17:02:13;1.70;99.90
32095;DHT22;18608;53.688;10.748;2022-12-01T17:04:39;1.70;99.90
32095;DHT22;18608;53.688;10.748;2022-12-01T17:07:05;1.70;99.90
32095;DHT22;18608;53.688;10.748;2022-12-01T17:09:30;1.70;99.90
32095;DHT22;18608;53.688;10.748;2022-12-01T17:11:56;1.60;99.90
32095;DHT22;18608;53.688;10.748;2022-12-01T17:14:22;1.60;99.90
32095;DHT22;18608;53.688;10.748;2022-12-01T17:16:48;1.70;99.90
32095;DHT22;18608;53.688;10.748;2022-12-01T17:19:14;1.80;99.90
32095;DHT22;18608;53.688;10.748;2022-12-01T17:21:40;1.80;99.90
32095;DHT22;18608;53.688;10.748;2022-12-01T17:24:06;1.80;99.90
32095;DHT22;18608;53.688;10.748;2022-12-01T17:26:32;1.90;99.90
32095;DHT22;18608;53.688;10.748;2022-12-01T17:28:58;1.80;99.90
32095;DHT22;18608;53.688;10.748;2022-12-01T17:31:24;1.80;99.90
32095;DHT22;18608;53.688;10.748;2022-12-01T17:33:50;1.80;99.90
32095;DHT22;18608;53.688;10.748;2022-12-01T17:36:16;1.80;99.90
32095;DHT22;18608;53.688;10.748;2022-12-01T17:38:43;2.70;99.90
32095;DHT22;18608;53.688;10.748;2022-12-01T17:41:12;1.70;99.90
32095;DHT22;18608;53.688;10.748;2022-12-01T17:43:39;1.60;99.90
32095;DHT22;18608;53.688;10.748;2022-12-01T17:46:07;1.60;99.90
32095;DHT22;18608;53.688;10.748;2022-12-01T17:48:40;1.60;99.90
32095;DHT22;18608;53.688;10.748;2022-12-01T17:51:08;1.60;99.90
32095;DHT22;18608;53.688;10.748;2022-12-01T17:53:34;1.50;99.90
32095;DHT22;18608;53.688;10.748;2022-12-01T17:56:00;1.30;99.90
32095;DHT22;18608;53.688;10.748;2022-12-01T17:58:26;1.30;99.90
32095;DHT22;18608;53.688;10.748;2022-12-01T18:00:53;0.20;99.90
32095;DHT22;18608;53.688;10.748;2022-12-01T18:03:19;1.30;99.90
32095;DHT22;18608;53.688;10.748;2022-12-01T18:05:56;1.30;99.90
32095;DHT22;18608;53.688;10.748;2022-12-01T18:08:26;1.40;99.90
32095;DHT22;18608;53.688;10.748;2022-12-01T18:10:52;1.40;99.90
32095;DHT22;18608;53.688;10.748;2022-12-01T18:13:19;1.40;99.90
32095;DHT22;18608;53.688;10.748;2022-12-01T18:15:44;1.50;99.90
32095;DHT22;18608;53.688;10.748;2022-12-01T18:18:10;1.60;99.90
32095;DHT22;18608;53.688;10.748;2022-12-01T18:20:40;1.40;99.90
32095;DHT22;18608;53.688;10.748;2022-12-01T18:23:06;1.40;99.90
32095;DHT22;18608;53.688;10.748;2022-12-01T18:25:34;1.40;99.90
32095;DHT22;18608;53.688;10.748;2022-12-01T18:27:59;1.40;99.90
32095;DHT22;18608;53.688;10.748;2022-12-01T18:30:25;1.50;99.90
32095;DHT22;18608;53.688;10.748;2022-12-01T18:32:51;1.50;99.90
32095;DHT22;18608;53.688;10.748;2022-12-01T18:35:16;1.60;99.90
32095;DHT22;18608;53.688;10.748;2022-12-01T18:37:42;1.60;99.90
32095;DHT22;18608;53.688;10.748;2022-12-01T18:40:08;1.70;99.90
32095;DHT22;18608;53.688;10.748;2022-12-01T18:42:34;1.70;99.90
32095;DHT22;18608;53.688;10.748;2022-12-01T18:45:00;1.70;99.90
32095;DHT22;18608;53.688;10.748;2022-12-01T18:47:27;1.60;99.90
32095;DHT22;18608;53.688;10.748;2022-12-01T18:49:53;1.50;99.90
32095;DHT22;18608;53.688;10.748;2022-12-01T18:52:18;1.70;99.90
32095;DHT22;18608;53.688;10.748;2022-12-01T18:54:44;1.80;99.90